Time;durP1;ratioP1;P1;durP2;ratioP2;P2;SDS_P1;SDS_P2;PMS_P1;PMS_P2;Temp;Humidity;BMP_temperature;BMP_pressure;BME280_temperature;BME280_humidity;BME280_pressure;Samples;Min_cycle;Max_cycle;Signal;HPM_P1;HPM_P2
2021/08/12 00:01:12;;;;;;;;;17.33;16.67;;;;;23.94;45.51;98952.16;4911946;28;103944;-80
2021/08/12 00:03:39;;;;;;;;;17.00;15.00;;;;;23.92;45.36;98949.69;4924631;28;102771;-79
2021/08/12 00:06:07;;;;;;;;;16.33;13.67;;;;;23.91;45.21;98956.31;4925790;28;102242;-79
2021/08/12 00:08:35;;;;;;;;;16.67;13.33;;;;;23.90;45.21;98954.66;4921854;28;104066;-79
2021/08/12 00:11:05;;;;;;;;;15.67;15.00;;;;;23.90;45.35;98957.44;4924158;28;102921;-80
2021/08/12 00:13:35;;;;;;;;;18.67;16.00;;;;;23.88;45.24;98953.28;4906796;28;102214;-79
2021/08/12 00:16:04;;;;;;;;;20.33;16.00;;;;;23.88;45.29;98950.50;4929839;28;104092;-80
2021/08/12 00:18:34;;;;;;;;;15.00;13.33;;;;;23.86;45.19;98950.81;4925046;28;104255;-80
2021/08/12 00:21:03;;;;;;;;;15.33;14.33;;;;;23.85;44.96;98951.91;4929658;28;102355;-80
2021/08/12 00:23:32;;;;;;;;;15.67;13.33;;;;;23.84;45.08;98954.94;4918569;28;102205;-80
2021/08/12 00:26:02;;;;;;;;;14.33;13.00;;;;;23.82;45.01;98960.72;4910081;28;102229;-80
2021/08/12 00:28:31;;;;;;;;;15.00;13.00;;;;;23.83;44.88;98959.63;4924936;28;103572;-80
2021/08/12 00:30:58;;;;;;;;;12.00;12.00;;;;;23.72;44.93;98946.13;4928006;28;102143;-79
2021/08/12 00:33:26;;;;;;;;;12.67;11.33;;;;;23.79;44.80;98963.22;4917647;28;105248;-79
2021/08/12 00:35:53;;;;;;;;;13.33;12.67;;;;;23.79;45.21;98964.06;4921339;28;102204;-79
2021/08/12 00:38:20;;;;;;;;;12.00;12.00;;;;;23.79;44.80;98966.00;4929157;28;104074;-80
2021/08/12 00:40:47;;;;;;;;;9.67;8.00;;;;;23.77;44.67;98973.75;4923722;28;102425;-79
2021/08/12 00:43:14;;;;;;;;;13.00;11.67;;;;;23.76;44.58;98972.09;4922917;28;102178;-79
2021/08/12 00:45:41;;;;;;;;;12.00;11.33;;;;;23.75;44.97;98976.78;4927651;28;104878;-79
2021/08/12 00:48:08;;;;;;;;;11.00;11.00;;;;;23.74;44.60;98977.03;4915021;28;104085;-79
2021/08/12 00:50:35;;;;;;;;;17.33;14.00;;;;;23.72;44.75;98982.84;4926338;28;103751;-79
2021/08/12 00:53:02;;;;;;;;;12.00;8.33;;;;;23.72;44.48;98979.25;4913169;28;102211;-79
2021/08/12 00:55:30;;;;;;;;;10.67;9.67;;;;;23.71;44.49;98975.69;4924826;28;102506;-79
2021/08/12 00:57:57;;;;;;;;;12.00;10.67;;;;;23.69;44.50;98972.34;4910863;28;104303;-79
2021/08/12 01:00:24;;;;;;;;;8.33;8.33;;;;;23.69;44.42;98975.09;4925579;28;103625;-79
2021/08/12 01:02:51;;;;;;;;;8.67;8.00;;;;;23.69;44.34;98972.34;4917288;28;102471;-79
2021/08/12 01:05:19;;;;;;;;;9.33;9.00;;;;;23.69;44.16;98977.88;4918653;28;102378;-79
2021/08/12 01:07:55;;;;;;;;;9.33;8.00;;;;;23.67;44.19;98980.09;4897192;28;104074;-80
2021/08/12 01:10:32;;;;;;;;;9.67;9.33;;;;;23.67;44.48;98974.56;4890218;28;104895;-79
2021/08/12 01:13:24;;;;;;;;;10.00;8.33;;;;;23.65;44.23;98976.78;4925840;28;102273;-79
2021/08/12 01:15:55;;;;;;;;;12.33;9.33;;;;;23.65;44.17;98967.66;4857513;28;102603;-79
2021/08/12 01:18:33;;;;;;;;;9.67;8.67;;;;;23.63;44.25;98973.47;4922456;28;103049;-79
2021/08/12 01:21:27;;;;;;;;;11.33;9.00;;;;;23.62;44.24;98971.81;4909699;28;102454;-79
2021/08/12 01:23:58;;;;;;;;;8.67;8.00;;;;;23.58;43.88;98976.22;4861126;28;103793;-79
2021/08/12 01:26:27;;;;;;;;;9.00;8.67;;;;;23.59;43.86;98974.31;4908136;28;105842;-79
2021/08/12 01:28:56;;;;;;;;;10.00;9.67;;;;;23.56;43.80;98979.25;4887141;28;103400;-79
2021/08/12 01:31:42;;;;;;;;;7.33;6.00;;;;;23.56;43.99;98984.78;4911099;28;105163;-79
2021/08/12 01:34:43;;;;;;;;;8.33;8.00;;;;;23.41;43.84;98959.09;4911074;28;103727;-79
2021/08/12 01:37:11;;;;;;;;;9.33;8.33;;;;;23.55;43.90;98982.28;4828064;28;102744;-79
2021/08/12 01:39:38;;;;;;;;;8.33;8.00;;;;;23.53;43.79;98992.78;4919281;28;104274;-79
2021/08/12 01:42:05;;;;;;;;;7.67;7.33;;;;;23.53;44.00;98985.34;4915666;28;103791;-79
2021/08/12 01:44:33;;;;;;;;;8.00;8.00;;;;;23.52;43.58;98989.19;4902656;28;104060;-79
2021/08/12 01:47:00;;;;;;;;;9.67;8.33;;;;;23.51;43.70;98981.19;4904256;28;102675;-79
2021/08/12 01:49:27;;;;;;;;;7.00;7.00;;;;;23.51;43.78;98983.94;4928936;28;104090;-79
2021/08/12 01:51:54;;;;;;;;;7.33;7.00;;;;;23.49;43.53;98977.88;4920760;28;106200;-79
2021/08/12 01:54:22;;;;;;;;;8.33;6.67;;;;;23.47;43.62;98980.91;4907922;28;104352;-79
2021/08/12 01:56:49;;;;;;;;;6.00;6.00;;;;;23.46;43.70;98984.78;4925638;28;102696;-79
2021/08/12 01:59:16;;;;;;;;;6.00;6.00;;;;;23.46;43.68;98979.25;4926160;28;104105;-79
2021/08/12 02:01:46;;;;;;;;;7.00;7.00;;;;;23.44;43.35;98986.16;4932435;28;102518;-79
2021/08/12 02:04:15;;;;;;;;;4.33;3.33;;;;;23.45;43.24;98983.13;4920869;28;102484;-79
2021/08/12 02:06:42;;;;;;;;;6.33;6.33;;;;;23.43;43.35;98987.22;4926791;28;104246;-79
2021/08/12 02:09:09;;;;;;;;;5.33;5.33;;;;;23.41;43.49;98986.69;4925592;28;105107;-79
2021/08/12 02:11:36;;;;;;;;;8.00;7.00;;;;;23.41;43.25;98981.16;4923670;28;103508;-79
2021/08/12 02:14:03;;;;;;;;;4.00;4.00;;;;;23.39;43.44;98980.59;4924225;28;103498;-79
2021/08/12 02:16:31;;;;;;;;;7.33;6.33;;;;;23.39;43.32;98983.38;4931421;28;102564;-79
2021/08/12 02:18:58;;;;;;;;;6.00;6.00;;;;;23.38;43.30;98988.06;4919531;28;104230;-79
2021/08/12 02:21:46;;;;;;;;;8.67;7.67;;;;;23.36;43.29;98984.75;4920944;28;102850;-78
2021/08/12 02:24:24;;;;;;;;;6.67;6.67;;;;;23.38;43.23;98987.22;4918269;28;104128;-79
2021/08/12 02:26:57;;;;;;;;;5.33;5.00;;;;;23.35;43.03;98983.09;4853896;28;102244;-79
2021/08/12 02:29:25;;;;;;;;;5.67;4.00;;;;;23.33;43.06;98982.53;4906306;28;104257;-79
2021/08/12 02:31:52;;;;;;;;;5.67;5.33;;;;;23.31;42.89;98983.91;4908246;28;102431;-79
2021/08/12 02:34:19;;;;;;;;;6.33;5.67;;;;;23.29;43.06;98981.41;4906181;28;102601;-79
2021/08/12 02:36:46;;;;;;;;;5.33;5.00;;;;;23.28;42.74;98981.72;4925648;28;102627;-79
2021/08/12 02:39:13;;;;;;;;;8.00;6.00;;;;;23.26;42.89;98981.16;4935851;28;104056;-79
2021/08/12 02:41:41;;;;;;;;;6.33;5.33;;;;;23.25;42.71;98988.59;4924344;28;103571;-79
2021/08/12 02:44:08;;;;;;;;;6.00;5.00;;;;;23.24;42.91;98978.66;4907386;28;102169;-79
2021/08/12 02:46:36;;;;;;;;;6.67;6.00;;;;;23.25;42.77;98991.34;4898179;28;102315;-79
2021/08/12 02:49:03;;;;;;;;;4.33;4.33;;;;;23.24;42.89;98989.69;4903577;28;104038;-79
2021/08/12 02:51:31;;;;;;;;;6.00;5.00;;;;;23.23;42.95;98989.97;4921548;28;103419;-79
2021/08/12 02:54:00;;;;;;;;;5.00;5.00;;;;;23.20;42.75;98994.09;4928554;28;102143;-79
2021/08/12 02:56:27;;;;;;;;;6.33;6.00;;;;;23.19;42.76;98991.63;4909306;28;102748;-79
2021/08/12 02:58:54;;;;;;;;;5.33;5.33;;;;;23.18;42.65;98999.06;4923575;28;104148;-79
2021/08/12 03:01:21;;;;;;;;;6.33;6.33;;;;;23.18;42.74;98995.47;4929866;28;102273;-79
2021/08/12 03:03:48;;;;;;;;;6.00;6.00;;;;;23.18;42.41;98995.47;4919577;28;102505;-79
2021/08/12 03:06:17;;;;;;;;;6.33;5.67;;;;;23.15;42.43;98996.84;4926867;28;105209;-79
2021/08/12 03:08:46;;;;;;;;;6.00;6.00;;;;;23.14;42.49;98993.25;4925681;28;104352;-79
2021/08/12 03:11:17;;;;;;;;;6.33;6.33;;;;;23.12;42.49;98998.22;4905829;28;102523;-79
2021/08/12 03:13:45;;;;;;;;;4.67;4.67;;;;;23.11;42.29;98988.28;4910351;28;102582;-79
2021/08/12 03:16:12;;;;;;;;;6.00;6.00;;;;;23.12;42.39;98997.41;4924521;28;102778;-79
2021/08/12 03:18:39;;;;;;;;;7.00;6.33;;;;;23.10;42.36;98996.81;4919670;28;104275;-79
2021/08/12 03:21:10;;;;;;;;;5.00;5.00;;;;;23.08;42.30;98994.38;4914724;28;102598;-79
2021/08/12 03:23:37;;;;;;;;;6.00;6.00;;;;;23.08;42.33;98999.06;4920829;28;102194;-79
2021/08/12 03:26:04;;;;;;;;;6.33;6.33;;;;;23.04;42.29;99004.28;4919622;28;103470;-79
2021/08/12 03:28:32;;;;;;;;;7.00;6.00;;;;;23.03;42.43;99007.31;4907119;28;104054;-79
2021/08/12 03:30:59;;;;;;;;;6.00;5.00;;;;;23.02;42.02;99000.13;4919459;28;102696;-79
2021/08/12 03:33:26;;;;;;;;;7.00;6.00;;;;;23.02;42.31;99011.16;4924631;28;102970;-79
2021/08/12 03:35:53;;;;;;;;;8.33;7.33;;;;;23.00;42.06;99008.69;4929230;28;102169;-79
2021/08/12 03:38:21;;;;;;;;;6.00;6.00;;;;;22.96;41.97;99021.38;4913100;28;104069;-79
2021/08/12 03:40:48;;;;;;;;;7.00;7.00;;;;;22.97;42.22;99019.41;4910145;28;102238;-79
2021/08/12 03:43:16;;;;;;;;;2.00;1.33;;;;;22.95;42.12;99019.72;4933912;28;104283;-79
2021/08/12 03:45:47;;;;;;;;;7.00;6.00;;;;;22.89;42.11;99018.03;4902916;28;103557;-79
2021/08/12 03:48:14;;;;;;;;;6.67;5.67;;;;;22.92;42.13;99022.97;4914921;28;108673;-79
2021/08/12 03:50:41;;;;;;;;;6.67;6.00;;;;;22.93;42.14;99027.41;4924869;28;102199;-79
2021/08/12 03:53:08;;;;;;;;;7.33;6.67;;;;;22.92;41.93;99028.50;4922700;28;103631;-79
2021/08/12 03:55:35;;;;;;;;;7.00;7.00;;;;;22.91;41.85;99026.03;4916192;28;103622;-79
2021/08/12 03:58:02;;;;;;;;;6.33;6.33;;;;;22.87;41.76;99024.91;4925223;28;110264;-79
2021/08/12 04:00:30;;;;;;;;;6.00;5.33;;;;;22.85;42.12;99025.19;4916158;28;102545;-79
2021/08/12 04:02:57;;;;;;;;;7.00;7.00;;;;;22.86;41.82;99029.59;4920912;28;102249;-79
2021/08/12 04:05:25;;;;;;;;;7.00;6.00;;;;;22.84;41.96;99031.78;4917063;28;103787;-79
2021/08/12 04:07:52;;;;;;;;;6.33;5.33;;;;;22.83;41.97;99024.59;4918260;28;105246;-79
2021/08/12 04:10:19;;;;;;;;;6.33;5.33;;;;;22.82;41.85;99025.72;4922756;28;102243;-79
2021/08/12 04:12:46;;;;;;;;;5.00;4.33;;;;;22.81;41.64;99026.81;4929756;28;104089;-79
2021/08/12 04:15:16;;;;;;;;;8.00;6.00;;;;;22.79;41.58;99022.66;4921407;28;102463;-79
2021/08/12 04:17:45;;;;;;;;;4.50;4.50;;;;;22.78;41.89;99027.38;4924626;28;108939;-79
2021/08/12 04:20:13;;;;;;;;;7.00;6.33;;;;;22.77;41.99;99025.72;4925840;28;103761;-80
2021/08/12 04:22:40;;;;;;;;;5.33;5.00;;;;;22.75;41.54;99027.06;4923173;28;102440;-78
2021/08/12 04:25:07;;;;;;;;;7.67;7.00;;;;;22.74;41.63;99034.50;4928974;28;102639;-80
2021/08/12 04:27:36;;;;;;;;;2.00;2.00;;;;;22.73;41.70;99026.50;4927592;28;103986;-79
2021/08/12 04:30:06;;;;;;;;;6.00;5.00;;;;;22.72;41.49;99027.59;4909278;28;102564;-79
2021/08/12 04:32:35;;;;;;;;;6.00;5.00;;;;;22.71;41.63;99029.53;4929218;28;103833;-79
2021/08/12 04:35:06;;;;;;;;;4.00;4.00;;;;;22.71;41.32;99026.78;4928473;28;102609;-79
2021/08/12 04:37:47;;;;;;;;;5.00;5.00;;;;;22.71;41.89;99028.69;4901363;28;104056;-79
2021/08/12 04:40:18;;;;;;;;;5.67;5.67;;;;;22.69;41.70;99039.97;4931624;28;102781;-79
2021/08/12 04:42:49;;;;;;;;;6.00;5.00;;;;;22.65;41.57;99038.84;4918755;28;104095;-79
2021/08/12 04:45:18;;;;;;;;;7.00;4.00;;;;;22.62;41.43;99033.88;4925581;28;102142;-79
2021/08/12 04:47:45;;;;;;;;;5.00;5.00;;;;;22.61;41.71;99043.22;4924120;28;110285;-79
2021/08/12 04:50:12;;;;;;;;;5.00;5.00;;;;;22.59;41.38;99038.00;4921830;28;102735;-79
2021/08/12 04:52:39;;;;;;;;;5.00;5.00;;;;;22.59;41.49;99046.28;4924456;28;102526;-79
2021/08/12 04:55:08;;;;;;;;;8.00;7.33;;;;;22.59;41.54;99037.16;4924436;28;102958;-79
2021/08/12 04:57:35;;;;;;;;;4.00;3.67;;;;;22.58;41.36;99030.81;4925480;28;104451;-79
2021/08/12 05:00:03;;;;;;;;;5.00;5.00;;;;;22.57;41.64;99037.44;4927172;28;102525;-79
2021/08/12 05:02:30;;;;;;;;;5.00;5.00;;;;;22.58;41.44;99041.84;4924916;28;103411;-79
2021/08/12 05:04:57;;;;;;;;;6.00;5.67;;;;;22.55;41.41;99036.88;4922973;28;102659;-79
2021/08/12 05:07:25;;;;;;;;;6.00;5.00;;;;;22.54;41.35;99042.66;4934622;28;104753;-79
2021/08/12 05:09:52;;;;;;;;;5.00;5.00;;;;;22.53;41.19;99043.75;4924553;28;104164;-79
2021/08/12 05:12:19;;;;;;;;;5.00;4.33;;;;;22.52;41.40;99045.66;4923004;28;103245;-79
2021/08/12 05:14:47;;;;;;;;;3.00;3.00;;;;;22.49;41.19;99050.91;4928788;28;102230;-79
2021/08/12 05:17:15;;;;;;;;;5.00;4.67;;;;;22.50;41.31;99041.53;4907486;28;108944;-80
2021/08/12 05:19:43;;;;;;;;;7.33;5.67;;;;;22.35;41.27;99027.66;4912938;28;102296;-79
2021/08/12 05:22:11;;;;;;;;;6.33;5.67;;;;;22.34;41.46;99023.25;4927218;28;102538;-79
2021/08/12 05:24:38;;;;;;;;;6.00;6.00;;;;;22.47;41.19;99058.63;4920050;28;102667;-79
2021/08/12 05:27:05;;;;;;;;;7.00;6.00;;;;;22.46;41.05;99062.47;4927093;28;104290;-80
2021/08/12 05:29:34;;;;;;;;;6.67;5.33;;;;;22.45;41.18;99061.63;4928939;28;102128;-80
2021/08/12 05:32:01;;;;;;;;;6.00;6.00;;;;;22.44;41.23;99059.97;4921150;28;102492;-80
2021/08/12 05:34:28;;;;;;;;;6.33;6.33;;;;;22.43;40.84;99066.56;4928135;28;102500;-79
2021/08/12 05:36:55;;;;;;;;;6.00;5.67;;;;;22.42;41.46;99062.16;4926873;28;104037;-80
2021/08/12 05:39:22;;;;;;;;;6.00;6.00;;;;;22.39;41.02;99062.69;4921228;28;102284;-79
2021/08/12 05:41:49;;;;;;;;;8.00;6.00;;;;;22.40;41.16;99060.75;4932938;28;102219;-79
2021/08/12 05:44:16;;;;;;;;;6.00;6.00;;;;;22.39;41.42;99061.84;4923962;28;102572;-79
2021/08/12 05:46:44;;;;;;;;;6.00;5.00;;;;;22.39;41.16;99059.09;4919500;28;104335;-79
2021/08/12 05:49:11;;;;;;;;;6.00;5.67;;;;;22.37;41.22;99064.06;4920259;28;102311;-79
2021/08/12 05:51:38;;;;;;;;;4.67;4.67;;;;;22.39;41.44;99059.09;4922760;28;103175;-79
2021/08/12 05:54:08;;;;;;;;;6.00;4.33;;;;;22.37;41.36;99058.56;4911664;28;102474;-79
2021/08/12 05:56:36;;;;;;;;;8.00;6.00;;;;;22.36;41.48;99070.66;4926843;28;111182;-79
2021/08/12 05:59:03;;;;;;;;;6.00;5.67;;;;;22.33;41.59;99065.69;4924239;28;102176;-79
2021/08/12 06:01:30;;;;;;;;;7.33;7.00;;;;;22.34;41.34;99072.84;4919725;28;102864;-79
2021/08/12 06:03:57;;;;;;;;;5.33;5.33;;;;;22.33;41.48;99069.28;4934534;28;102194;-79
2021/08/12 06:06:24;;;;;;;;;6.00;6.00;;;;;22.35;41.64;99080.00;4920611;28;104149;-79
2021/08/12 06:08:51;;;;;;;;;5.00;5.00;;;;;22.33;41.53;99082.22;4921854;28;104403;-79
2021/08/12 06:11:18;;;;;;;;;5.00;5.00;;;;;22.34;41.62;99079.19;4939085;28;102588;-79
2021/08/12 06:13:45;;;;;;;;;7.00;6.00;;;;;22.32;41.76;99088.81;4923143;28;102467;-79
2021/08/12 06:16:12;;;;;;;;;6.00;6.00;;;;;22.32;41.86;99091.56;4925760;28;104100;-79
2021/08/12 06:18:39;;;;;;;;;4.67;4.67;;;;;22.32;41.90;99083.31;4929781;28;102529;-80
2021/08/12 06:21:08;;;;;;;;;4.33;4.00;;;;;22.32;42.37;99083.31;4914168;28;102369;-79
2021/08/12 06:23:35;;;;;;;;;5.00;5.00;;;;;22.32;41.96;99084.16;4918907;28;103589;-79
2021/08/12 06:26:02;;;;;;;;;7.33;6.00;;;;;22.34;42.10;99086.63;4922913;28;104275;-79
2021/08/12 06:28:29;;;;;;;;;7.00;5.00;;;;;22.19;42.47;99074.41;4909605;28;102954;-79
2021/08/12 06:30:56;;;;;;;;;5.33;5.00;;;;;22.31;42.47;99088.00;4932835;28;102733;-80
2021/08/12 06:33:24;;;;;;;;;2.00;2.00;;;;;22.18;42.33;99061.75;4921275;28;102184;-79
2021/08/12 06:35:51;;;;;;;;;5.33;5.00;;;;;22.32;42.38;99089.66;4926902;28;104068;-79
2021/08/12 06:38:18;;;;;;;;;5.67;5.67;;;;;22.32;42.44;99089.66;4926046;28;102074;-79
2021/08/12 06:40:48;;;;;;;;;5.00;5.00;;;;;22.33;42.88;99085.81;4908136;28;101992;-79
2021/08/12 06:43:15;;;;;;;;;5.67;5.00;;;;;22.33;42.79;99085.81;4913887;28;103614;-79
2021/08/12 06:45:44;;;;;;;;;5.67;5.00;;;;;22.31;42.92;99087.16;4926004;28;104604;-80
2021/08/12 06:48:12;;;;;;;;;4.33;4.00;;;;;22.34;42.82;99083.84;4911749;28;102375;-80
2021/08/12 06:50:41;;;;;;;;;5.67;5.00;;;;;22.33;43.11;99093.25;4914325;28;102407;-79
2021/08/12 06:53:08;;;;;;;;;5.00;5.00;;;;;22.33;43.20;99094.06;4934237;28;102722;-79
2021/08/12 06:55:35;;;;;;;;;6.00;5.00;;;;;22.32;43.17;99089.66;4918589;28;104063;-79
2021/08/12 06:58:02;;;;;;;;;5.00;5.00;;;;;22.35;43.46;99100.13;4917021;28;102242;-80
2021/08/12 07:00:29;;;;;;;;;4.00;3.00;;;;;22.36;43.44;99089.94;4935851;28;102570;-80
2021/08/12 07:02:57;;;;;;;;;5.00;5.00;;;;;22.36;43.53;99095.47;4915582;28;102608;-80
2021/08/12 07:05:25;;;;;;;;;3.00;2.67;;;;;22.35;43.46;99088.28;4924069;28;104523;-80
2021/08/12 07:07:52;;;;;;;;;4.00;3.67;;;;;22.37;43.70;99092.44;4921987;28;105251;-80
2021/08/12 07:10:20;;;;;;;;;4.00;4.00;;;;;22.37;43.75;99097.97;4911227;28;104579;-79
2021/08/12 07:12:47;;;;;;;;;4.67;3.00;;;;;22.38;44.02;99099.59;4921102;28;102738;-79
2021/08/12 07:15:14;;;;;;;;;4.00;4.00;;;;;22.39;44.03;99100.44;4926565;28;104331;-80
2021/08/12 07:17:42;;;;;;;;;5.00;5.00;;;;;22.39;43.84;99100.44;4911706;28;102420;-80
2021/08/12 07:20:09;;;;;;;;;7.00;6.00;;;;;22.39;44.06;99092.16;4900622;28;102200;-79
2021/08/12 07:22:36;;;;;;;;;5.00;4.33;;;;;22.40;44.17;99102.94;4906632;28;102678;-80
2021/08/12 07:25:04;;;;;;;;;6.00;6.00;;;;;22.40;44.14;99096.59;4900597;28;104077;-79
2021/08/12 07:27:31;;;;;;;;;4.00;4.00;;;;;22.40;43.99;99091.91;4898809;28;102077;-80
2021/08/12 07:29:58;;;;;;;;;3.33;3.00;;;;;22.41;44.46;99095.50;4904086;28;102139;-80
2021/08/12 07:32:25;;;;;;;;;3.33;3.33;;;;;22.43;44.40;99112.56;4897089;28;102147;-80
2021/08/12 07:34:52;;;;;;;;;3.67;3.67;;;;;22.42;44.39;99098.00;4882548;28;104147;-80
2021/08/12 07:37:21;;;;;;;;;4.67;3.67;;;;;22.43;44.41;99109.81;4905817;28;102403;-79
2021/08/12 07:39:48;;;;;;;;;4.00;4.00;;;;;22.46;44.46;99112.06;4903227;28;102619;-79
2021/08/12 07:42:19;;;;;;;;;5.33;5.00;;;;;22.47;44.49;99108.22;4918825;28;102673;-79
2021/08/12 07:44:47;;;;;;;;;3.67;3.67;;;;;22.48;44.74;99102.44;4902417;28;103897;-80
2021/08/12 07:47:14;;;;;;;;;3.33;3.33;;;;;22.49;44.42;99106.00;4898285;28;102205;-80
2021/08/12 07:49:41;;;;;;;;;4.00;4.00;;;;;22.49;44.49;99097.75;4906386;28;102596;-80
2021/08/12 07:52:08;;;;;;;;;3.67;3.67;;;;;22.52;44.51;99106.31;4904499;28;103397;-79
2021/08/12 07:54:38;;;;;;;;;4.00;4.00;;;;;22.54;44.76;99103.28;4899380;28;103995;-79
2021/08/12 07:57:06;;;;;;;;;5.00;4.00;;;;;22.55;44.70;99107.72;4910417;28;102635;-79
2021/08/12 07:59:33;;;;;;;;;5.00;4.00;;;;;22.56;44.40;99104.69;4904989;28;102493;-80
2021/08/12 08:02:01;;;;;;;;;3.33;3.33;;;;;22.59;44.61;99117.13;4900224;28;102651;-80
2021/08/12 08:04:28;;;;;;;;;3.00;3.00;;;;;22.48;44.61;99093.31;4908364;28;103977;-80
2021/08/12 08:06:55;;;;;;;;;4.00;4.00;;;;;22.61;44.67;99112.97;4901095;28;102220;-80
2021/08/12 08:09:22;;;;;;;;;3.00;3.00;;;;;22.64;44.55;99119.91;4904738;28;103000;-80
2021/08/12 08:11:49;;;;;;;;;3.33;2.67;;;;;22.61;44.71;99112.16;4913814;28;102288;-80
2021/08/12 08:14:16;;;;;;;;;4.00;4.00;;;;;22.64;44.64;99114.38;4901661;28;103818;-80
2021/08/12 08:16:44;;;;;;;;;3.00;2.00;;;;;22.66;44.77;99123.22;4905094;28;102605;-80
2021/08/12 08:19:15;;;;;;;;;4.00;3.00;;;;;22.67;44.89;99120.19;4909189;28;102451;-80
2021/08/12 08:21:42;;;;;;;;;3.67;3.67;;;;;22.69;45.03;99125.44;4906726;28;111700;-79
2021/08/12 08:24:11;;;;;;;;;3.67;2.67;;;;;22.70;44.88;99124.38;4909736;28;104202;-80
2021/08/12 08:26:38;;;;;;;;;3.33;3.33;;;;;22.72;45.00;99122.19;4917529;28;102102;-80
2021/08/12 08:29:06;;;;;;;;;5.00;4.00;;;;;22.74;44.80;99130.19;4914455;28;103068;-80
2021/08/12 08:31:33;;;;;;;;;3.67;3.67;;;;;22.72;45.07;99119.44;4923297;28;102177;-79
2021/08/12 08:34:00;;;;;;;;;4.00;4.00;;;;;22.75;44.93;99127.16;4919574;28;104234;-80
2021/08/12 08:36:27;;;;;;;;;3.00;3.00;;;;;22.76;44.89;99119.72;4915526;28;102324;-79
2021/08/12 08:38:55;;;;;;;;;5.00;3.33;;;;;22.78;45.02;99118.38;4932083;28;102182;-79
2021/08/12 08:41:22;;;;;;;;;4.00;3.33;;;;;22.79;44.90;99122.75;4911921;28;102606;-79
2021/08/12 08:43:49;;;;;;;;;4.67;4.00;;;;;22.80;45.02;99126.34;4920089;28;111032;-79
2021/08/12 08:46:16;;;;;;;;;2.00;2.00;;;;;22.82;45.00;99126.94;4914856;28;102612;-79
2021/08/12 08:48:44;;;;;;;;;3.00;3.00;;;;;22.83;44.95;99123.09;4921642;28;102661;-79
2021/08/12 08:51:11;;;;;;;;;4.67;3.00;;;;;22.83;45.21;99121.13;4918035;28;102458;-80
2021/08/12 08:53:39;;;;;;;;;4.67;4.00;;;;;22.85;45.41;99120.88;4921962;28;102890;-78
2021/08/12 08:56:06;;;;;;;;;3.00;3.00;;;;;22.86;44.93;99131.63;4903286;28;102645;-79
2021/08/12 08:58:33;;;;;;;;;3.33;3.33;;;;;22.88;45.07;99123.06;4918159;28;103432;-79
2021/08/12 09:01:01;;;;;;;;;3.00;2.00;;;;;22.86;45.24;99126.13;4914521;28;102479;-79
2021/08/12 09:03:28;;;;;;;;;4.00;4.00;;;;;22.89;45.21;99128.34;4907795;28;104166;-80
2021/08/12 09:05:55;;;;;;;;;2.00;2.00;;;;;22.91;45.31;99136.34;4915226;28;102202;-80
2021/08/12 09:08:25;;;;;;;;;3.67;3.67;;;;;22.80;45.24;99116.16;4937049;28;102030;-80
2021/08/12 09:10:52;;;;;;;;;3.00;3.00;;;;;22.93;45.32;99131.38;4909861;28;102458;-80
2021/08/12 09:13:20;;;;;;;;;3.33;3.33;;;;;22.95;45.25;99135.53;4918937;28;108581;-80
2021/08/12 09:15:47;;;;;;;;;4.00;4.00;;;;;22.96;45.22;99128.94;4910612;28;102189;-80
2021/08/12 09:18:26;;;;;;;;;3.00;3.00;;;;;22.99;45.16;99135.84;4898520;28;103020;-79
2021/08/12 09:20:58;;;;;;;;;2.00;1.33;;;;;22.99;45.35;99139.44;4892850;28;102211;-80
2021/08/12 09:23:27;;;;;;;;;3.67;3.67;;;;;23.00;45.35;99134.75;4898695;28;110335;-80
2021/08/12 09:25:55;;;;;;;;;4.00;3.00;;;;;23.01;45.46;99134.44;4904125;28;103021;-80
2021/08/12 09:28:32;;;;;;;;;4.00;3.00;;;;;23.01;45.28;99137.22;4898512;28;103373;-80
2021/08/12 09:33:30;;;;;;;;;2.00;2.00;;;;;23.03;45.37;99135.03;4886342;28;104136;-80
2021/08/12 09:35:57;;;;;;;;;3.67;3.67;;;;;23.04;45.49;99124.81;4896955;28;102199;-80
2021/08/12 09:38:24;;;;;;;;;3.00;3.00;;;;;23.05;45.46;99127.31;4899776;28;102555;-80
2021/08/12 09:40:56;;;;;;;;;2.00;2.00;;;;;23.06;45.43;99128.13;4894330;28;102293;-80
2021/08/12 09:43:28;;;;;;;;;2.33;2.33;;;;;23.07;45.37;99136.16;4902610;28;108762;-79
2021/08/12 09:45:55;;;;;;;;;3.00;3.00;;;;;23.08;45.38;99132.28;4883971;28;104292;-80
2021/08/12 09:48:23;;;;;;;;;4.00;3.67;;;;;23.09;45.07;99139.47;4889967;28;102674;-80
2021/08/12 09:51:06;;;;;;;;;3.33;3.33;;;;;23.11;45.48;99139.19;4898074;28;102422;-80
2021/08/12 09:53:34;;;;;;;;;3.00;3.00;;;;;23.11;45.56;99131.75;4833076;28;109205;-80
2021/08/12 09:56:11;;;;;;;;;3.33;3.33;;;;;23.12;45.53;99133.41;4860698;28;103022;-80
2021/08/12 09:58:38;;;;;;;;;3.67;3.00;;;;;23.14;45.54;99136.72;4886878;28;102443;-80
2021/08/12 10:01:32;;;;;;;;;2.00;2.00;;;;;23.04;45.60;99120.16;4901430;28;102713;-80
2021/08/12 10:04:21;;;;;;;;;2.33;2.00;;;;;23.16;45.66;99141.97;4902338;28;109096;-80
2021/08/12 10:06:49;;;;;;;;;3.67;3.67;;;;;23.18;45.74;99141.72;4895437;28;102214;-80
2021/08/12 10:09:16;;;;;;;;;5.00;3.00;;;;;23.18;45.63;99137.03;4910347;28;102186;-80
2021/08/12 10:11:44;;;;;;;;;2.67;2.00;;;;;23.20;45.71;99137.56;4891592;28;102670;-80
2021/08/12 10:14:11;;;;;;;;;2.00;2.00;;;;;23.21;45.74;99133.72;4885868;28;104092;-80
2021/08/12 10:16:40;;;;;;;;;3.67;3.67;;;;;23.23;45.81;99136.22;4904047;28;102598;-79
2021/08/12 10:19:09;;;;;;;;;3.00;2.67;;;;;23.22;45.64;99129.88;4910247;28;102783;-80
2021/08/12 10:21:37;;;;;;;;;2.00;2.00;;;;;23.25;45.66;99125.72;4899937;28;110672;-80
2021/08/12 10:24:05;;;;;;;;;2.00;2.00;;;;;23.25;45.74;99132.06;4914104;28;104047;-79
2021/08/12 10:26:33;;;;;;;;;2.67;2.67;;;;;23.28;45.71;99136.25;4913087;28;102580;-79
2021/08/12 10:29:05;;;;;;;;;2.67;2.67;;;;;23.28;45.72;99134.28;4921147;28;102465;-79
2021/08/12 10:31:32;;;;;;;;;3.00;3.00;;;;;23.26;45.54;99131.00;4917151;28;102409;-79
2021/08/12 10:34:00;;;;;;;;;3.00;3.00;;;;;23.29;45.73;99137.88;4903037;28;104090;-79
2021/08/12 10:36:29;;;;;;;;;2.00;2.00;;;;;23.29;45.63;99138.72;4906996;28;102858;-80
2021/08/12 10:38:56;;;;;;;;;3.00;3.00;;;;;23.30;45.62;99126.59;4909988;28;102682;-80
2021/08/12 10:41:24;;;;;;;;;3.33;3.33;;;;;23.32;45.79;99126.31;4919962;28;102698;-79
2021/08/12 10:43:55;;;;;;;;;3.33;3.33;;;;;23.33;45.86;99127.97;4916651;28;104080;-79
2021/08/12 10:46:38;;;;;;;;;3.00;2.67;;;;;23.35;45.81;99123.00;4924871;28;102104;-80
2021/08/12 10:49:25;;;;;;;;;2.67;2.67;;;;;23.34;45.68;99122.19;4849308;28;102762;-80
2021/08/12 10:52:10;;;;;;;;;2.00;2.00;;;;;23.36;45.80;99124.69;4911423;28;102241;-79
2021/08/12 10:54:39;;;;;;;;;2.33;2.33;;;;;23.36;45.75;99121.91;4858294;28;108571;-80
2021/08/12 10:57:12;;;;;;;;;3.00;3.00;;;;;23.36;45.87;99120.00;4902155;28;102803;-80
2021/08/12 10:59:41;;;;;;;;;4.00;3.00;;;;;23.38;45.82;99127.97;4918029;28;104601;-79
2021/08/12 11:02:27;;;;;;;;;2.00;2.00;;;;;23.37;45.87;99127.16;4922881;28;102767;-79
2021/08/12 11:04:56;;;;;;;;;3.00;3.00;;;;;23.39;45.88;99126.88;4908756;28;109919;-80
2021/08/12 11:07:38;;;;;;;;;2.00;2.00;;;;;23.40;45.83;99123.03;4918633;28;102260;-80
2021/08/12 11:10:10;;;;;;;;;2.67;2.67;;;;;23.40;45.67;99123.03;4846614;28;102745;-80
2021/08/12 11:12:52;;;;;;;;;2.33;2.33;;;;;23.40;45.98;99128.53;4913089;28;102635;-80
2021/08/12 11:15:38;;;;;;;;;2.00;2.00;;;;;23.41;45.88;99120.00;4910905;28;104002;-80
2021/08/12 11:18:07;;;;;;;;;3.00;3.00;;;;;23.41;45.95;99125.53;4857497;28;103263;-80
2021/08/12 11:20:38;;;;;;;;;3.00;3.00;;;;;23.36;45.96;99108.13;4920899;28;102173;-80
2021/08/12 11:23:17;;;;;;;;;0.00;0.00;;;;;23.45;45.98;99117.56;4918085;28;102445;-80
2021/08/12 11:25:58;;;;;;;;;3.00;2.00;;;;;23.45;46.00;99126.66;4902313;28;108765;-79
2021/08/12 11:28:40;;;;;;;;;2.00;2.00;;;;;23.49;45.84;99129.72;4900490;28;102438;-79
2021/08/12 11:31:08;;;;;;;;;4.00;3.00;;;;;23.48;45.95;99126.13;4855519;28;102150;-80
2021/08/12 11:34:02;;;;;;;;;2.00;2.00;;;;;23.50;45.92;99128.63;4920788;28;102177;-80
2021/08/12 11:36:34;;;;;;;;;3.00;3.00;;;;;23.52;45.90;99127.22;4904196;28;109093;-80